Accueil
METAR-TAF:

METAR-TAF

Aéroports :

RAF Mount Pleasant

Port Stanley, Îles Malouines

latitude: 51-49S, longitude: 058-27W, altitude: 74 m

Observation

Le bulletin a été fait il y a 17 minutes, à 03:50 UTC
Vent 6 kt de sud/sud-ouest
Température -3°C
Humidité 86%
Pression 992 hPa
Visibilité 10 km ou plus
Nuages épars à une hauteur de 3000 ft
Nuages fragmentés à une hauteur de 18000 ft

METAR: EGYP 250350Z 21006KT 9999 SCT030 BKN180 M03/M05 Q0992 BLU

Heure: 01:07 (04:07 UTC)

Prévision

Le bulletin a été fait il y a 2 heures et 57 minutes, à 01:10 UTC
Prévision valable du 25 à 03 UTC au 25 à 21 UTC
Vent 10 kt de sud/sud-ouest
Visibilité 10 km ou plus
Nuages fragmentés à une hauteur de 3000 ft
Probabilité 30% :
Temporairement
du 25 à 03 UTC au 25 à 21 UTC
Visibilité: 4000 m
Nuages épars à une hauteur de 2000 ft
faibles averses de neige

TAF: EGYP 250110Z 2503/2521 20010KT 9999 BKN030 PROB30 TEMPO 2503/2521 4000 -SHSN SCT020

Observations et prévisions météorologiques de plus de 4000 aéroports (messages METAR et TAF).

Les stations disponibles sont représentées par des disques jaunes et rouges sur la carte.

Passer la souris dessus pour voir le nom de la station.

Cliquer dessus pour voir les observations et prévisions météorologiques.

Pour changer de carte: cliquez sur les boutons verts avec une croix noire pour zoomer, sur le bouton vert avec un tiret pour effectuer un zoom arrière, ou sur les flèches vertes pour les cartes adjacentes.


METAR-TAF: